createdAt,value
2016-05-15T00:00:27.077Z,7.28
2016-05-15T00:01:27.127Z,7.28
2016-05-15T00:02:27.145Z,7.18
2016-05-15T00:03:27.024Z,7.05
2016-05-15T00:04:27.433Z,7.1
2016-05-15T00:05:27.076Z,7.07
2016-05-15T00:06:27.110Z,7.06
2016-05-15T00:07:27.299Z,7.21
2016-05-15T00:08:27.161Z,7.23
2016-05-15T00:09:27.351Z,7.15
2016-05-15T00:10:27.386Z,7.24
2016-05-15T00:11:27.404Z,7.29
2016-05-15T00:12:27.454Z,7.18
2016-05-15T00:13:27.315Z,7.1
2016-05-15T00:14:27.350Z,7.18
2016-05-15T00:15:27.524Z,7.24
2016-05-15T00:16:27.558Z,7.23
2016-05-15T00:17:27.576Z,7.07
2016-05-15T00:18:27.470Z,7.15
2016-05-15T00:19:27.644Z,7.2
2016-05-15T00:20:27.678Z,7.13
2016-05-15T00:21:27.712Z,7.02
2016-05-15T00:22:27.746Z,7.02
2016-05-15T00:23:27.781Z,7
2016-05-15T00:24:27.798Z,6.97
2016-05-15T00:25:27.817Z,6.92
2016-05-15T00:26:27.882Z,6.99
2016-05-15T00:27:27.900Z,6.96
2016-05-15T00:28:27.918Z,7.07
2016-05-15T00:29:27.796Z,7.03
2016-05-15T00:30:27.971Z,7.06
2016-05-15T00:31:28.021Z,7.03
2016-05-15T00:32:28.055Z,7.03
2016-05-15T00:33:28.088Z,7.07
2016-05-15T00:34:28.294Z,7.06
2016-05-15T00:35:28.124Z,7.1
2016-05-15T00:36:28.002Z,6.93
2016-05-15T00:37:28.193Z,7
2016-05-15T00:38:28.210Z,7.02
2016-05-15T00:39:28.245Z,6.88
2016-05-15T00:40:28.279Z,6.84
2016-05-15T00:41:28.312Z,6.92
2016-05-15T00:42:28.346Z,6.99
2016-05-15T00:43:28.381Z,6.87
2016-05-15T00:44:28.399Z,6.99
2016-05-15T00:45:28.433Z,6.89
2016-05-15T00:46:28.451Z,6.87
2016-05-15T00:47:28.501Z,6.99
2016-05-15T00:48:28.534Z,6.89
2016-05-15T00:49:28.398Z,6.84
2016-05-15T00:50:28.587Z,6.88
2016-05-15T00:51:28.621Z,6.93
2016-05-15T00:52:28.639Z,6.85
2016-05-15T00:53:28.658Z,6.79
2016-05-15T00:54:28.738Z,6.89
2016-05-15T00:55:28.569Z,6.87
2016-05-15T00:56:28.759Z,6.84
2016-05-15T00:57:28.778Z,6.87
2016-05-15T00:58:28.811Z,6.88
2016-05-15T00:59:28.689Z,6.84
2016-05-15T01:00:28.724Z,6.88
2016-05-15T01:01:28.741Z,6.88
2016-05-15T01:02:28.932Z,6.84
2016-05-15T01:03:46.778Z,6.81
2016-05-15T01:04:28.860Z,6.72
2016-05-15T01:05:29.033Z,6.85
2016-05-15T01:06:28.896Z,6.88
2016-05-15T01:07:28.930Z,6.85
2016-05-15T01:08:29.120Z,6.87
2016-05-15T01:09:29.154Z,6.99
2016-05-15T01:10:29.172Z,6.96
2016-05-15T01:11:29.207Z,6.88
2016-05-15T01:12:29.084Z,6.89
2016-05-15T01:13:29.102Z,7.02
2016-05-15T01:14:29.136Z,6.95
2016-05-15T01:15:29.326Z,6.84
2016-05-15T01:16:29.204Z,6.89
2016-05-15T01:17:29.394Z,6.89
2016-05-15T01:18:29.959Z,6.89
2016-05-15T01:19:30.071Z,6.85
2016-05-15T01:20:29.495Z,6.87
2016-05-15T01:21:29.499Z,6.81
2016-05-15T01:22:29.533Z,6.6
2016-05-15T01:23:29.426Z,6.74
2016-05-15T01:24:29.600Z,6.72
2016-05-15T01:25:29.634Z,6.63
2016-05-15T01:26:29.497Z,6.69
2016-05-15T01:27:29.686Z,6.92
2016-05-15T01:28:29.705Z,6.72
2016-05-15T01:29:29.739Z,6.7
2016-05-15T01:30:29.772Z,6.72
2016-05-15T01:31:29.650Z,6.69
2016-05-15T01:32:29.825Z,6.79
2016-05-15T01:33:29.922Z,6.75
2016-05-15T01:34:29.908Z,6.79
2016-05-15T01:35:29.911Z,6.84
2016-05-15T01:36:30.555Z,6.72
2016-05-15T01:37:29.979Z,6.72
2016-05-15T01:38:44.169Z,6.89
2016-05-15T01:39:30.032Z,6.81
2016-05-15T01:40:30.065Z,6.88
2016-05-15T01:41:30.099Z,6.85
2016-05-15T01:42:30.132Z,6.78
2016-05-15T01:43:29.995Z,6.87
2016-05-15T01:44:30.185Z,6.87
2016-05-15T01:45:30.219Z,6.84
2016-05-15T01:46:30.081Z,6.82
2016-05-15T01:47:30.475Z,6.88
2016-05-15T01:48:30.446Z,6.92
2016-05-15T01:49:30.527Z,6.84
2016-05-15T01:50:30.217Z,6.81
2016-05-15T01:51:30.407Z,6.82
2016-05-15T01:52:30.284Z,6.79
2016-05-15T01:53:30.460Z,6.87
2016-05-15T01:54:30.478Z,7
2016-05-15T01:55:30.528Z,6.92
2016-05-15T01:56:30.530Z,6.84
2016-05-15T01:57:30.580Z,6.84
2016-05-15T01:58:30.630Z,6.84
2016-05-15T01:59:30.632Z,6.84
2016-05-15T02:00:30.525Z,6.88
2016-05-15T02:01:30.528Z,6.84
2016-05-15T02:02:30.719Z,6.81
2016-05-15T02:03:30.596Z,6.87
2016-05-15T02:04:30.786Z,6.88
2016-05-15T02:05:31.210Z,6.88
2016-05-15T02:06:30.869Z,6.84
2016-05-15T02:07:45.216Z,6.82
2016-05-15T02:08:30.921Z,6.85
2016-05-15T02:09:30.925Z,6.75
2016-05-15T02:10:30.958Z,6.79
2016-05-15T02:11:45.133Z,6.7
2016-05-15T02:12:31.213Z,6.7
2016-05-15T02:13:31.046Z,6.69
2016-05-15T02:14:31.094Z,6.69
2016-05-15T02:15:31.362Z,6.75
2016-05-15T02:16:31.616Z,6.59
2016-05-15T02:18:31.448Z,6.57
2016-05-15T02:19:46.015Z,6.64
2016-05-15T02:20:45.423Z,6.66
2016-05-15T02:22:31.975Z,6.78
2016-05-15T02:25:46.186Z,6.56
2016-05-15T02:26:33.048Z,6.41
2016-05-15T02:30:59.856Z,6.33
2016-05-15T02:31:47.952Z,6.39
2016-05-15T02:33:00.128Z,6.38
2016-05-15T02:33:42.005Z,6.39
2016-05-15T02:34:42.304Z,6.33
2016-05-15T02:35:43.338Z,6.44
2016-05-15T02:36:43.653Z,6.44
2016-05-15T02:37:56.766Z,6.56
2016-05-15T02:39:42.318Z,6.48
2016-05-15T02:40:42.274Z,6.31
2016-05-15T02:41:42.729Z,6.39
2016-05-15T02:42:42.779Z,6.38
2016-05-15T02:43:56.532Z,6.45
2016-05-15T02:44:42.629Z,6.39
2016-05-15T02:45:56.365Z,6.54
2016-05-15T02:46:56.634Z,6.59
2016-05-15T02:47:56.651Z,6.59
2016-05-15T02:48:57.139Z,6.49
2016-05-15T02:50:42.862Z,6.42
2016-05-15T02:51:42.835Z,6.51
2016-05-15T02:52:56.790Z,6.52
2016-05-15T02:53:42.698Z,6.51
2016-05-15T02:54:42.514Z,6.48
2016-05-15T02:55:42.939Z,6.41
2016-05-15T02:56:42.551Z,6.49
2016-05-15T02:57:42.850Z,6.54
2016-05-15T02:59:43.309Z,6.41
2016-05-15T03:00:43.092Z,6.3
2016-05-15T03:02:42.723Z,6.39
2016-05-15T03:03:43.491Z,6.38
2016-05-15T03:04:46.447Z,6.33
2016-05-15T03:07:44.533Z,6.27
2016-05-15T03:08:42.989Z,6.44
2016-05-15T03:10:57.166Z,6.24
2016-05-15T03:11:44.029Z,6.33
2016-05-15T03:14:11.347Z,6.31
2016-05-15T03:15:06.302Z,6.42
2016-05-15T03:15:52.180Z,6.42
2016-05-15T03:16:52.683Z,6.38
2016-05-15T03:17:52.763Z,6.31
2016-05-15T03:18:52.345Z,6.36
2016-05-15T03:19:52.940Z,6.39
2016-05-15T03:20:53.804Z,6.39
2016-05-15T03:21:52.587Z,6.46
2016-05-15T03:22:52.480Z,6.44
2016-05-15T03:24:52.907Z,6.45
2016-05-15T03:26:06.659Z,6.39
2016-05-15T03:26:53.976Z,6.41
2016-05-15T03:27:52.790Z,6.52
2016-05-15T03:31:16.267Z,6.57
2016-05-15T03:32:02.333Z,6.54
2016-05-15T03:33:02.366Z,6.75
2016-05-15T03:34:01.681Z,6.74
2016-05-15T03:35:01.778Z,6.69
2016-05-15T03:37:02.299Z,6.79
2016-05-15T03:38:02.708Z,6.67
2016-05-15T03:39:02.149Z,6.67
2016-05-15T03:40:16.119Z,6.54
2016-05-15T03:41:02.450Z,6.63
2016-05-15T03:42:16.938Z,6.57
2016-05-15T03:45:16.132Z,6.52
2016-05-15T03:46:02.355Z,6.41
2016-05-15T03:47:15.904Z,6.42
2016-05-15T03:48:16.562Z,6.41
2016-05-15T03:49:01.894Z,6.46
2016-05-15T03:51:02.227Z,6.35
2016-05-15T03:53:02.358Z,6.35
2016-05-15T03:54:02.235Z,6.38
2016-05-15T03:55:02.644Z,6.56
2016-05-15T03:56:03.788Z,6.7
2016-05-15T03:58:17.215Z,6.54
2016-05-15T03:59:02.139Z,6.7
2016-05-15T04:00:02.158Z,6.66
2016-05-15T04:01:02.348Z,6.72
2016-05-15T04:02:02.616Z,6.77
2016-05-15T04:03:03.041Z,6.89
2016-05-15T04:04:02.606Z,6.85
2016-05-15T04:05:02.312Z,7.05
2016-05-15T04:06:02.502Z,6.89
2016-05-15T04:07:02.927Z,6.93
2016-05-15T04:08:02.805Z,6.95
2016-05-15T04:09:02.572Z,6.99
2016-05-15T04:10:16.747Z,6.87
2016-05-15T04:11:02.844Z,6.88
2016-05-15T04:12:02.863Z,6.97
2016-05-15T04:13:16.833Z,7.06
2016-05-15T04:14:17.070Z,6.96
2016-05-15T04:15:02.746Z,6.85
2016-05-15T04:16:02.779Z,6.82
2016-05-15T04:17:02.796Z,6.88
2016-05-15T04:18:02.847Z,6.78
2016-05-15T04:19:03.631Z,6.87
2016-05-15T04:20:31.199Z,7.02
2016-05-15T04:21:17.074Z,7.31
2016-05-15T04:22:02.983Z,7.51
2016-05-15T04:23:03.017Z,7.63
2016-05-15T04:24:03.034Z,7.61
2016-05-15T04:25:03.491Z,7.54
2016-05-15T04:26:03.337Z,7.61
2016-05-15T04:27:17.278Z,7.6
2016-05-15T04:28:03.123Z,7.43
2016-05-15T04:29:02.861Z,7.53
2016-05-15T04:30:17.332Z,7.88
2016-05-15T04:31:17.803Z,7.77
2016-05-15T04:32:03.291Z,7.85
2016-05-15T04:33:17.465Z,7.87
2016-05-15T04:34:03.359Z,7.79
2016-05-15T04:35:03.533Z,7.69
2016-05-15T04:36:17.723Z,7.63
2016-05-15T04:37:03.601Z,7.67
2016-05-15T04:38:03.416Z,7.58
2016-05-15T04:39:17.606Z,7.61
2016-05-15T04:40:03.500Z,7.61
2016-05-15T04:41:03.393Z,7.53
2016-05-15T04:43:03.586Z,7.5
2016-05-15T04:44:03.619Z,7.57
2016-05-15T04:45:03.638Z,7.61
2016-05-15T04:46:03.874Z,7.8
2016-05-15T04:47:03.691Z,7.73
2016-05-15T04:48:03.724Z,7.73
2016-05-15T04:49:03.962Z,7.67
2016-05-15T04:50:04.011Z,7.63
2016-05-15T04:52:18.063Z,7.6
2016-05-15T04:53:03.863Z,7.63
2016-05-15T04:54:04.131Z,7.58
2016-05-15T04:55:03.978Z,7.77
2016-05-15T04:56:18.121Z,7.73
2016-05-15T04:57:18.171Z,7.8
2016-05-15T04:58:03.892Z,7.7
2016-05-15T04:59:04.082Z,7.83
2016-05-15T05:01:04.119Z,7.79
2016-05-15T05:02:04.387Z,7.72
2016-05-15T05:04:04.737Z,7.87
2016-05-15T05:05:04.739Z,7.87
2016-05-15T05:06:04.303Z,7.83
2016-05-15T05:08:04.341Z,7.8
2016-05-15T05:09:04.593Z,7.9
2016-05-15T05:11:04.458Z,7.82
2016-05-15T05:12:04.461Z,8.01
2016-05-15T05:13:05.151Z,7.95
2016-05-15T05:14:04.388Z,7.98
2016-05-15T05:15:04.391Z,8.1
2016-05-15T05:16:04.987Z,8.1
2016-05-15T05:17:04.599Z,8.05
2016-05-15T05:18:04.665Z,8
2016-05-15T05:19:19.308Z,8.05
2016-05-15T05:20:04.748Z,8.05
2016-05-15T05:21:04.938Z,8.08
2016-05-15T05:22:04.754Z,8.1
2016-05-15T05:23:04.787Z,8.15
2016-05-15T05:24:04.821Z,8.15
2016-05-15T05:25:04.886Z,8.12
2016-05-15T05:26:04.733Z,8.1
2016-05-15T05:27:05.110Z,8.18
2016-05-15T05:28:04.784Z,8.24
2016-05-15T05:29:04.976Z,8.34
2016-05-15T05:30:04.853Z,8.28
2016-05-15T05:31:05.042Z,8.3
2016-05-15T05:32:05.077Z,8.31
2016-05-15T05:33:04.956Z,8.38
2016-05-15T05:34:05.129Z,8.3
2016-05-15T05:35:05.147Z,8.28
2016-05-15T05:36:05.198Z,8.28
2016-05-15T05:37:05.075Z,8.33
2016-05-15T05:38:05.264Z,8.37
2016-05-15T05:39:05.283Z,8.44
2016-05-15T05:40:05.317Z,8.46
2016-05-15T05:41:05.336Z,8.51
2016-05-15T05:43:05.403Z,8.52
2016-05-15T05:44:05.438Z,8.6
2016-05-15T05:45:05.487Z,8.71
2016-05-15T05:46:05.505Z,8.66
2016-05-15T05:47:05.539Z,8.6
2016-05-15T05:48:05.558Z,8.64
2016-05-15T05:49:05.451Z,8.63
2016-05-15T05:50:05.626Z,8.61
2016-05-15T05:51:05.660Z,8.53
2016-05-15T05:52:05.677Z,8.51
2016-05-15T05:53:05.712Z,8.67
2016-05-15T05:54:05.746Z,8.79
2016-05-15T05:55:05.779Z,8.88
2016-05-15T05:56:05.798Z,9.23
2016-05-15T05:57:05.863Z,9.4
2016-05-15T05:58:05.725Z,9.51
2016-05-15T05:59:05.900Z,9.59
2016-05-15T06:00:05.933Z,9.55
2016-05-15T06:01:05.984Z,9.5
2016-05-15T06:02:05.845Z,9.44
2016-05-15T06:03:06.051Z,9.43
2016-05-15T06:04:06.164Z,9.43
2016-05-15T06:05:06.103Z,9.37
2016-05-15T06:06:06.137Z,9.37
2016-05-15T06:07:06.156Z,9.47
2016-05-15T06:08:06.189Z,9.51
2016-05-15T06:09:06.239Z,9.37
2016-05-15T06:10:06.257Z,9.4
2016-05-15T06:11:06.120Z,9.5
2016-05-15T06:12:06.325Z,9.48
2016-05-15T06:13:06.344Z,9.69
2016-05-15T06:14:06.377Z,9.86
2016-05-15T06:15:06.271Z,10.13
2016-05-15T06:16:06.446Z,10.01
2016-05-15T06:17:06.338Z,10.07
2016-05-15T06:18:06.358Z,10.28
2016-05-15T06:19:06.797Z,10.15
2016-05-15T06:20:06.565Z,10.16
2016-05-15T06:21:06.616Z,10.07
2016-05-15T06:22:06.649Z,9.94
2016-05-15T06:23:06.667Z,9.76
2016-05-15T06:24:06.701Z,9.69
2016-05-15T06:25:06.735Z,9.72
2016-05-15T06:26:06.769Z,9.77
2016-05-15T06:27:06.803Z,9.74
2016-05-15T06:28:06.524Z,9.89
2016-05-15T06:29:06.871Z,10.01
2016-05-15T06:30:06.889Z,10.04
2016-05-15T06:31:06.923Z,9.99
2016-05-15T06:32:06.973Z,9.87
2016-05-15T06:33:07.007Z,9.66
2016-05-15T06:34:07.259Z,9.58
2016-05-15T06:35:06.934Z,9.61
2016-05-15T06:36:07.109Z,9.5
2016-05-15T06:37:06.970Z,9.56
2016-05-15T06:38:07.161Z,9.64
2016-05-15T06:39:07.194Z,9.64
2016-05-15T06:40:07.229Z,9.56
2016-05-15T06:41:07.263Z,9.48
2016-05-15T06:42:07.296Z,9.4
2016-05-15T06:43:07.331Z,9.5
2016-05-15T06:44:07.364Z,9.59
2016-05-15T06:45:07.399Z,9.56
2016-05-15T06:46:07.260Z,9.56
2016-05-15T06:47:07.451Z,9.65
2016-05-15T06:48:07.500Z,9.94
2016-05-15T06:49:07.690Z,10.12
2016-05-15T06:50:07.553Z,10.12
2016-05-15T06:51:07.571Z,10.1
2016-05-15T06:52:07.620Z,10.07
2016-05-15T06:53:07.654Z,10.16
2016-05-15T06:54:07.688Z,10.13
2016-05-15T06:55:07.738Z,10.16
2016-05-15T06:56:07.756Z,10.26
2016-05-15T06:57:07.774Z,10.33
2016-05-15T06:58:07.809Z,10.25
2016-05-15T06:59:07.842Z,10.2
2016-05-15T07:00:07.720Z,10.07
2016-05-15T07:01:07.910Z,10.23
2016-05-15T07:02:07.929Z,10.4
2016-05-15T07:03:07.978Z,10.28
2016-05-15T07:04:08.465Z,10.37
2016-05-15T07:05:08.046Z,10.56
2016-05-15T07:06:08.064Z,10.53
2016-05-15T07:07:07.957Z,10.69
2016-05-15T07:08:07.992Z,10.89
2016-05-15T07:09:08.181Z,11.12
2016-05-15T07:10:08.059Z,11.22
2016-05-15T07:11:08.233Z,11.27
2016-05-15T07:12:08.268Z,11.22
2016-05-15T07:13:08.302Z,11.1
2016-05-15T07:14:08.351Z,11.08
2016-05-15T07:15:08.214Z,11.07
2016-05-15T07:16:08.247Z,11.18
2016-05-15T07:17:08.438Z,11.12
2016-05-15T07:18:08.488Z,11.04
2016-05-15T07:19:08.521Z,11.11
2016-05-15T07:20:08.383Z,10.96
2016-05-15T07:21:08.573Z,10.86
2016-05-15T07:22:08.607Z,10.74
2016-05-15T07:23:08.641Z,10.82
2016-05-15T07:24:08.675Z,10.87
2016-05-15T07:25:08.552Z,11.02
2016-05-15T07:26:08.774Z,11.07
2016-05-15T07:27:08.777Z,11.1
2016-05-15T07:28:08.654Z,11.05
2016-05-15T07:29:08.845Z,10.86
2016-05-15T07:30:08.879Z,10.72
2016-05-15T07:31:08.757Z,10.67
2016-05-15T07:32:09.150Z,10.53
2016-05-15T07:33:08.824Z,10.87
2016-05-15T07:34:09.031Z,11.04
2016-05-15T07:35:09.048Z,11
2016-05-15T07:36:09.081Z,10.81
2016-05-15T07:37:09.117Z,11
2016-05-15T07:38:09.150Z,11.23
2016-05-15T07:39:09.204Z,11.22
2016-05-15T07:40:09.266Z,11.37
2016-05-15T07:41:09.375Z,11.4
2016-05-15T07:42:09.436Z,11.19
2016-05-15T07:43:09.513Z,11.02
2016-05-15T07:44:09.578Z,10.89
2016-05-15T07:45:09.628Z,10.81
2016-05-15T07:46:09.678Z,11.05
2016-05-15T07:47:09.727Z,11.43
2016-05-15T07:48:09.776Z,12.09
2016-05-15T07:49:10.119Z,12.28
2016-05-15T07:50:09.845Z,12.27
2016-05-15T07:51:09.885Z,11.87
2016-05-15T07:52:09.939Z,11.88
2016-05-15T07:53:09.839Z,12.65
2016-05-15T07:54:10.033Z,13.27
2016-05-15T07:55:10.052Z,13.54
2016-05-15T07:56:10.104Z,13.74
2016-05-15T07:57:10.108Z,14.1
2016-05-15T07:58:10.160Z,14.29
2016-05-15T07:59:10.195Z,13.78
2016-05-15T08:00:10.230Z,13.27
2016-05-15T08:01:10.265Z,12.91
2016-05-15T08:02:10.299Z,12.79
2016-05-15T08:03:10.334Z,12.87
2016-05-15T08:04:10.728Z,12.5
2016-05-15T08:05:10.246Z,12.54
2016-05-15T08:06:10.453Z,12.35
2016-05-15T08:07:10.332Z,12.06
2016-05-15T08:08:10.522Z,11.81
2016-05-15T08:09:10.399Z,11.78
2016-05-15T08:10:10.606Z,11.69
2016-05-15T08:11:10.468Z,11.66
2016-05-15T08:12:10.501Z,11.6
2016-05-15T08:13:10.691Z,11.55
2016-05-15T08:14:10.741Z,11.35
2016-05-15T08:15:10.760Z,11.47
2016-05-15T08:16:10.652Z,11.4
2016-05-15T08:17:10.859Z,11.78
2016-05-15T08:18:10.877Z,12.18
2016-05-15T08:19:11.004Z,12.27
2016-05-15T08:20:10.960Z,12.31
2016-05-15T08:21:10.823Z,12.76
2016-05-15T08:22:11.013Z,13.23
2016-05-15T08:23:11.078Z,13.54
2016-05-15T08:24:11.190Z,13.5
2016-05-15T08:25:11.131Z,13.78
2016-05-15T08:26:11.164Z,14.89
2016-05-15T08:27:11.198Z,15.76
2016-05-15T08:28:11.247Z,16.43
2016-05-15T08:29:11.282Z,16.12
2016-05-15T08:30:11.315Z,15.94
2016-05-15T08:31:11.380Z,16.16
2016-05-15T08:32:11.383Z,16.79
2016-05-15T08:33:11.277Z,17.19
2016-05-15T08:34:11.326Z,15.97
2016-05-15T08:35:11.766Z,15.7
2016-05-15T08:36:11.536Z,16.2
2016-05-15T08:37:11.569Z,16.21
2016-05-15T08:38:11.618Z,15.92
2016-05-15T08:39:11.637Z,15.91
2016-05-15T08:40:11.686Z,15.37
2016-05-15T08:41:11.735Z,15.39
2016-05-15T08:42:11.769Z,14.78
2016-05-15T08:43:11.866Z,14.5
2016-05-15T08:44:11.853Z,14
2016-05-15T08:45:11.730Z,13.97
2016-05-15T08:46:11.780Z,13.86
2016-05-15T08:47:11.971Z,13.89
2016-05-15T08:48:12.020Z,13.6
2016-05-15T08:49:12.445Z,13.37
2016-05-15T08:50:12.088Z,12.87
2016-05-15T08:51:12.122Z,12.6
2016-05-15T08:52:12.156Z,12.25
2016-05-15T08:53:12.206Z,12
2016-05-15T08:54:12.239Z,12.03
2016-05-15T08:55:12.117Z,12.58
2016-05-15T08:56:12.010Z,13.83
2016-05-15T08:57:12.342Z,14.4
2016-05-15T08:58:12.390Z,14.17
2016-05-15T08:59:12.456Z,14.77
2016-05-15T09:00:12.318Z,15.27
2016-05-15T09:01:12.336Z,15.29
2016-05-15T09:02:12.542Z,15.58
2016-05-15T09:03:12.592Z,16.33
2016-05-15T09:04:12.625Z,16.58
2016-05-15T09:05:12.817Z,17.3
2016-05-15T09:06:12.694Z,17.14
2016-05-15T09:07:12.727Z,16.6
2016-05-15T09:08:12.777Z,15.98
2016-05-15T09:09:12.654Z,15.7
2016-05-15T09:10:12.844Z,15.14
2016-05-15T09:11:12.895Z,14.72
2016-05-15T09:12:12.772Z,15.04
2016-05-15T09:13:12.962Z,14.79
2016-05-15T09:14:13.013Z,15.57
2016-05-15T09:15:13.046Z,15.84
2016-05-15T09:16:13.079Z,15.77
2016-05-15T09:17:13.129Z,15.61
2016-05-15T09:18:13.164Z,16.28
2016-05-15T09:19:13.213Z,16.79
2016-05-15T09:20:13.278Z,16.65
2016-05-15T09:21:13.140Z,15.52
2016-05-15T09:22:13.158Z,15.42
2016-05-15T09:23:13.365Z,15
2016-05-15T09:24:13.398Z,14.51
2016-05-15T09:25:13.448Z,14.33
2016-05-15T09:26:13.482Z,14.05
2016-05-15T09:27:13.515Z,13.81
2016-05-15T09:28:13.565Z,13.44
2016-05-15T09:29:13.615Z,13.41
2016-05-15T09:30:13.633Z,13.52
2016-05-15T09:31:13.698Z,13.47
2016-05-15T09:32:13.576Z,12.82
2016-05-15T09:33:13.766Z,12.95
2016-05-15T09:34:13.800Z,12.97
2016-05-15T09:35:14.319Z,12.94
2016-05-15T09:36:13.883Z,12.72
2016-05-15T09:37:13.761Z,12.61
2016-05-15T09:38:13.936Z,12.43
2016-05-15T09:39:13.814Z,12.39
2016-05-15T09:40:13.863Z,12.9
2016-05-15T09:41:14.069Z,13.27
2016-05-15T09:42:13.931Z,13.44
2016-05-15T09:43:14.136Z,13.18
2016-05-15T09:44:13.858Z,12.94
2016-05-15T09:45:13.891Z,12.72
2016-05-15T09:46:14.239Z,12.61
2016-05-15T09:47:14.288Z,12.22
2016-05-15T09:48:14.150Z,11.86
2016-05-15T09:49:14.356Z,11.77
2016-05-15T09:50:14.999Z,11.22
2016-05-15T09:51:14.268Z,10.82
2016-05-15T09:52:14.458Z,10.22
2016-05-15T09:53:14.492Z,9.89
2016-05-15T09:54:14.541Z,9.46
2016-05-15T09:55:14.575Z,9.5
2016-05-15T09:56:14.437Z,9.36
2016-05-15T09:57:14.628Z,9.37
2016-05-15T09:58:14.661Z,9.41
2016-05-15T09:59:14.712Z,9.37
2016-05-15T10:00:14.745Z,9.37
2016-05-15T10:01:14.779Z,9.32
2016-05-15T10:02:14.656Z,9.34
2016-05-15T10:03:14.831Z,9.29
2016-05-15T10:04:14.881Z,9.43
2016-05-15T10:05:15.274Z,9.22
2016-05-15T10:06:14.948Z,9.48
2016-05-15T10:07:14.998Z,9.66
2016-05-15T10:08:15.017Z,9.82
2016-05-15T10:09:14.878Z,9.77
2016-05-15T10:10:15.068Z,9.87
2016-05-15T10:11:14.961Z,10.22
2016-05-15T10:12:14.997Z,10.53
2016-05-15T10:13:15.030Z,10.56
2016-05-15T10:14:14.907Z,10.78
2016-05-15T10:15:15.255Z,11.08
2016-05-15T10:16:15.272Z,11.52
2016-05-15T10:17:15.150Z,11.97
2016-05-15T10:18:15.184Z,12.54
2016-05-15T10:19:15.391Z,12.73
2016-05-15T10:20:15.408Z,13.03
2016-05-15T10:21:15.302Z,13.81
2016-05-15T10:22:15.476Z,13.79
2016-05-15T10:23:15.509Z,14.55
2016-05-15T10:24:15.560Z,15.03
2016-05-15T10:25:15.593Z,14.91
2016-05-15T10:26:15.627Z,15.42
2016-05-15T10:27:15.504Z,16.23
2016-05-15T10:28:15.851Z,16.2
2016-05-15T10:29:15.745Z,16.56
2016-05-15T10:30:15.779Z,16.17
2016-05-15T10:31:15.844Z,16.2
2016-05-15T10:32:15.878Z,16
2016-05-15T10:33:15.896Z,16.01
2016-05-15T10:34:15.696Z,16.05
2016-05-15T10:35:16.042Z,16.02
2016-05-15T10:36:15.872Z,16.54
2016-05-15T10:37:16.048Z,16.04
2016-05-15T10:38:16.098Z,15.67
2016-05-15T10:39:16.147Z,16.13
2016-05-15T10:40:16.180Z,15.55
2016-05-15T10:41:16.075Z,15.76
2016-05-15T10:42:16.280Z,15.61
2016-05-15T10:43:16.142Z,15.95
2016-05-15T10:44:16.347Z,15.73
2016-05-15T10:45:16.382Z,15.9
2016-05-15T10:46:16.431Z,15.97
2016-05-15T10:47:16.153Z,16.54
2016-05-15T10:48:16.358Z,17.2
2016-05-15T10:49:16.549Z,16.79
2016-05-15T10:50:16.629Z,17.7
2016-05-15T10:51:16.649Z,18.18
2016-05-15T10:52:16.541Z,17.64
2016-05-15T10:53:16.731Z,16.46
2016-05-15T10:54:16.624Z,15.24
2016-05-15T10:55:16.658Z,14.6
2016-05-15T10:56:16.865Z,14.17
2016-05-15T10:57:16.757Z,13.68
2016-05-15T10:58:16.948Z,12.79
2016-05-15T10:59:17.012Z,12.04
2016-05-15T11:00:17.032Z,11.26
2016-05-15T11:01:17.065Z,10.9
2016-05-15T11:02:17.099Z,10.26
2016-05-15T11:03:17.148Z,10.1
2016-05-15T11:04:17.199Z,10.13
2016-05-15T11:05:17.231Z,10.38
2016-05-15T11:06:17.267Z,10.38
2016-05-15T11:07:17.159Z,10.59
2016-05-15T11:08:17.350Z,10.78
2016-05-15T11:09:17.383Z,10.72
2016-05-15T11:10:17.418Z,10.78
2016-05-15T11:11:17.452Z,10.99
2016-05-15T11:12:17.501Z,11.25
2016-05-15T11:13:17.535Z,11.66
2016-05-15T11:14:17.585Z,12.36
2016-05-15T11:15:17.602Z,13
2016-05-15T11:16:17.637Z,14.03
2016-05-15T11:17:17.671Z,14.2
2016-05-15T11:18:17.721Z,14.78
2016-05-15T11:19:18.238Z,15.29
2016-05-15T11:20:17.632Z,15.79
2016-05-15T11:21:17.838Z,16.15
2016-05-15T11:22:17.715Z,16.43
2016-05-15T11:23:17.765Z,16.13
2016-05-15T11:24:17.815Z,14.85
2016-05-15T11:25:18.020Z,14.15
2016-05-15T11:26:18.038Z,13.59
2016-05-15T11:27:18.073Z,13.57
2016-05-15T11:28:17.981Z,14.03
2016-05-15T11:29:18.000Z,14.32
2016-05-15T11:30:18.190Z,13.86
2016-05-15T11:31:18.256Z,13.59
2016-05-15T11:32:18.289Z,12.78
2016-05-15T11:33:18.307Z,12.57
2016-05-15T11:34:18.826Z,12.15
2016-05-15T11:35:18.407Z,12
2016-05-15T11:36:18.425Z,12.02
2016-05-15T11:37:18.475Z,12.47
2016-05-15T11:38:18.352Z,13.25
2016-05-15T11:39:18.558Z,13.99
2016-05-15T11:40:18.592Z,14.15
2016-05-15T11:41:18.626Z,13.93
2016-05-15T11:42:18.660Z,13.6
2016-05-15T11:43:18.913Z,12.79
2016-05-15T11:44:18.586Z,12.43
2016-05-15T11:45:18.778Z,12.27
2016-05-15T11:46:18.811Z,12.07
2016-05-15T11:47:18.861Z,12.06
2016-05-15T11:48:18.941Z,12.62
2016-05-15T11:49:19.241Z,12.6
2016-05-15T11:50:18.852Z,12.79
2016-05-15T11:51:19.013Z,12.73
2016-05-15T11:52:19.046Z,12.47
2016-05-15T11:53:19.096Z,12.24
2016-05-15T11:54:19.113Z,12.4
2016-05-15T11:55:19.007Z,12.12
2016-05-15T11:56:19.400Z,12.18
2016-05-15T11:57:19.076Z,12
2016-05-15T11:58:19.110Z,11.63
2016-05-15T11:59:19.299Z,11.5
2016-05-15T12:00:19.348Z,11.69
2016-05-15T12:01:19.242Z,11.63
2016-05-15T12:02:19.417Z,11.51
2016-05-15T12:03:19.310Z,11.45
2016-05-15T12:04:19.954Z,11.45
2016-05-15T12:05:19.565Z,11.66
2016-05-15T12:06:19.568Z,11.7
2016-05-15T12:07:19.602Z,11.69
2016-05-15T12:08:19.636Z,11.69
2016-05-15T12:09:19.670Z,11.73
2016-05-15T12:10:19.704Z,11.94
2016-05-15T12:11:19.738Z,12.07
2016-05-15T12:12:19.616Z,12.07
2016-05-15T12:13:19.806Z,12.1
2016-05-15T12:14:19.856Z,12.46
2016-05-15T12:15:19.889Z,12.4
2016-05-15T12:16:19.923Z,12.47
2016-05-15T12:17:19.957Z,12.32
2016-05-15T12:18:19.991Z,12.29
2016-05-15T12:19:20.259Z,12.27
2016-05-15T12:20:20.199Z,11.94
2016-05-15T12:21:20.094Z,12.03
2016-05-15T12:22:20.143Z,12.1
2016-05-15T12:23:20.177Z,12.2
2016-05-15T12:24:20.210Z,12.06
2016-05-15T12:25:20.244Z,12.1
2016-05-15T12:26:20.262Z,11.78
2016-05-15T12:27:20.313Z,11.78
2016-05-15T12:28:20.346Z,11.48
2016-05-15T12:29:20.396Z,11.52
2016-05-15T12:30:20.257Z,11.45
2016-05-15T12:31:20.292Z,11.41
2016-05-15T12:32:20.341Z,11.37
2016-05-15T12:33:20.532Z,11.45
2016-05-15T12:34:20.565Z,11.4
2016-05-15T12:35:21.006Z,11.68
2016-05-15T12:36:20.633Z,11.83
2016-05-15T12:37:20.667Z,11.77
2016-05-15T12:38:20.701Z,11.7
2016-05-15T12:39:20.579Z,11.63
2016-05-15T12:40:20.770Z,11.66
2016-05-15T12:41:20.834Z,11.55
2016-05-15T12:42:20.837Z,11.83
2016-05-15T12:43:20.870Z,11.73
2016-05-15T12:44:20.905Z,11.68
2016-05-15T12:45:20.938Z,11.66
2016-05-15T12:46:20.973Z,11.69
2016-05-15T12:47:20.866Z,11.8
2016-05-15T12:48:21.041Z,12.04
2016-05-15T12:49:21.466Z,12.12
2016-05-15T12:50:21.311Z,12.21
2016-05-15T12:51:21.158Z,12.31
2016-05-15T12:52:21.176Z,12.42
2016-05-15T12:53:21.210Z,12.36
2016-05-15T12:54:21.260Z,11.94
2016-05-15T12:55:21.138Z,11.94
2016-05-15T12:56:21.327Z,12.43
2016-05-15T12:57:21.377Z,12.79
2016-05-15T12:58:21.411Z,13.5
2016-05-15T12:59:21.274Z,14.11
2016-05-15T13:00:21.479Z,14.58
2016-05-15T13:01:21.529Z,14.79
2016-05-15T13:02:21.390Z,15.35
2016-05-15T13:03:21.596Z,15.33
2016-05-15T13:04:21.458Z,15.37
2016-05-15T13:05:21.384Z,15.03
2016-05-15T13:06:21.729Z,14.99
2016-05-15T13:07:21.748Z,14.86
2016-05-15T13:08:21.781Z,14.89
2016-05-15T13:09:21.831Z,14.69
2016-05-15T13:10:21.864Z,14.08
2016-05-15T13:11:21.883Z,13.65
2016-05-15T13:12:21.934Z,12.76
2016-05-15T13:13:21.983Z,12.22
2016-05-15T13:14:21.861Z,11.84
2016-05-15T13:15:22.066Z,11.54
2016-05-15T13:16:22.084Z,11.33
2016-05-15T13:17:22.119Z,11.07
2016-05-15T13:18:22.169Z,10.99
2016-05-15T13:19:22.749Z,10.74
2016-05-15T13:20:22.642Z,10.53
2016-05-15T13:21:22.269Z,10.51
2016-05-15T13:22:22.319Z,10.4
2016-05-15T13:23:22.369Z,10.48
2016-05-15T13:24:22.387Z,10.35
2016-05-15T13:25:22.422Z,10.38
2016-05-15T13:26:22.596Z,10.44
2016-05-15T13:27:22.488Z,10.53
2016-05-15T13:28:22.523Z,10.57
2016-05-15T13:29:22.557Z,10.59
2016-05-15T13:30:22.450Z,10.34
2016-05-15T13:31:22.641Z,10.48
2016-05-15T13:32:22.518Z,10.42
2016-05-15T13:33:22.709Z,10.59
2016-05-15T13:34:22.648Z,10.72
2016-05-15T13:35:22.776Z,10.89
2016-05-15T13:36:22.654Z,10.9
2016-05-15T13:37:22.844Z,10.81
2016-05-15T13:38:22.878Z,10.86
2016-05-15T13:39:22.928Z,10.9
2016-05-15T13:40:22.790Z,10.87
2016-05-15T13:41:22.980Z,10.99